Time,TemperatureF,DewpointF,PressureIn,WindDirection,WindDirectionDegrees,WindSpeedMPH,WindSpeedGustMPH,Humidity,HourlyPrecipIn,Conditions,Clouds,dailyrainin,SoftwareType,DateUTC
2013-03-04 00:04:00,38.2,32.6,29.69,East,87,0.0,7.6,80,0.00,,,-99.99,Meteorologica,2013-03-04 06:04:00,
2013-03-04 00:09:00,38.1,32.6,29.68,SSW,192,4.9,10.8,80,0.00,,,-99.99,Meteorologica,2013-03-04 06:09:00,
2013-03-04 00:14:00,38.0,32.6,29.68,SE,145,2.4,7.5,80,0.00,,,-99.99,Meteorologica,2013-03-04 06:14:00,
2013-03-04 00:19:00,37.9,32.5,29.68,SSE,162,6.4,8.7,80,0.00,,,-99.99,Meteorologica,2013-03-04 06:19:00,
2013-03-04 00:24:00,37.7,32.4,29.68,ESE,107,4.0,7.5,80,0.00,,,-99.99,Meteorologica,2013-03-04 06:24:00,
2013-03-04 00:29:00,37.6,32.3,29.68,SE,134,0.7,8.3,81,0.00,,,-99.99,Meteorologica,2013-03-04 06:29:00,
2013-03-04 00:34:00,37.3,32.2,29.67,South,177,4.5,6.4,81,0.00,,,-99.99,Meteorologica,2013-03-04 06:34:00,
2013-03-04 00:39:00,37.1,32.1,29.67,ESE,121,3.8,9.7,82,0.00,,,-99.99,Meteorologica,2013-03-04 06:39:00,
2013-03-04 00:44:00,36.9,31.9,29.66,ESE,103,3.5,7.1,82,0.00,,,-99.99,Meteorologica,2013-03-04 06:44:00,
2013-03-04 00:49:00,36.8,32.0,29.67,South,187,0.0,6.9,82,0.00,,,-99.99,Meteorologica,2013-03-04 06:49:00,
2013-03-04 00:54:00,36.6,31.9,29.67,ESE,114,2.5,8.3,83,0.00,,,-99.99,Meteorologica,2013-03-04 06:54:00,
2013-03-04 00:59:00,36.5,31.9,29.67,SSE,161,3.4,6.9,83,0.00,,,-99.99,Meteorologica,2013-03-04 06:59:00,
2013-03-04 01:04:00,36.2,31.6,29.67,South,170,0.5,5.0,83,0.00,,,-99.99,Meteorologica,2013-03-04 07:04:00,
2013-03-04 01:09:00,36.2,31.7,29.66,SW,227,1.2,5.3,83,0.00,,,-99.99,Meteorologica,2013-03-04 07:09:00,
2013-03-04 01:14:00,36.0,31.6,29.67,SSE,149,4.4,7.8,84,0.00,,,-99.99,Meteorologica,2013-03-04 07:14:00,
2013-03-04 01:19:00,36.0,31.6,29.66,SE,136,0.0,6.9,84,0.00,,,-99.99,Meteorologica,2013-03-04 07:19:00,
2013-03-04 01:24:00,35.9,31.6,29.66,South,170,2.9,6.8,84,0.00,,,-99.99,Meteorologica,2013-03-04 07:24:00,
2013-03-04 01:29:00,35.8,31.6,29.66,SSE,159,0.1,6.8,84,0.00,,,-99.99,Meteorologica,2013-03-04 07:29:00,
2013-03-04 01:34:00,35.7,31.5,29.66,South,175,1.1,7.8,84,0.00,,,-99.99,Meteorologica,2013-03-04 07:34:00,
2013-03-04 01:39:00,35.5,31.4,29.66,SSE,165,4.1,10.1,85,0.00,,,-99.99,Meteorologica,2013-03-04 07:39:00,
2013-03-04 01:44:00,35.4,31.4,29.65,South,179,2.9,5.3,85,0.00,,,-99.99,Meteorologica,2013-03-04 07:44:00,
2013-03-04 01:49:00,35.3,31.4,29.66,SSE,164,4.7,7.1,85,0.00,,,-99.99,Meteorologica,2013-03-04 07:49:00,
2013-03-04 01:54:00,35.2,31.4,29.65,South,169,2.2,9.0,85,0.00,,,-99.99,Meteorologica,2013-03-04 07:54:00,
2013-03-04 01:59:00,35.1,31.4,29.65,South,169,3.3,6.1,86,0.00,,,-99.99,Meteorologica,2013-03-04 07:59:00,
2013-03-04 02:04:00,35.0,31.3,29.65,SSW,199,1.7,5.6,86,0.00,,,-99.99,Meteorologica,2013-03-04 08:04:00,
2013-03-04 02:09:00,35.1,31.4,29.66,South,172,0.0,8.4,86,0.00,,,-99.99,Meteorologica,2013-03-04 08:09:00,
2013-03-04 02:14:00,35.1,31.4,29.66,East,83,0.0,5.8,86,0.00,,,-99.99,Meteorologica,2013-03-04 08:14:00,
2013-03-04 02:19:00,35.0,31.3,29.66,East,83,0.0,0.0,86,0.00,,,-99.99,Meteorologica,2013-03-04 08:19:00,
2013-03-04 02:24:00,35.0,31.3,29.67,East,83,0.0,0.0,86,0.00,,,-99.99,Meteorologica,2013-03-04 08:24:00,
2013-03-04 02:29:00,34.8,31.1,29.67,East,83,0.0,0.0,86,0.00,,,-99.99,Meteorologica,2013-03-04 08:29:00,
2013-03-04 02:34:00,34.6,31.0,29.67,East,83,0.0,0.0,86,0.00,,,-99.99,Meteorologica,2013-03-04 08:34:00,
2013-03-04 02:39:00,34.5,30.9,29.67,East,83,0.0,0.0,86,0.00,,,-99.99,Meteorologica,2013-03-04 08:39:00,
2013-03-04 02:44:00,34.3,30.8,29.67,East,83,0.0,0.0,87,0.00,,,-99.99,Meteorologica,2013-03-04 08:44:00,
2013-03-04 02:49:00,34.0,30.7,29.66,East,83,0.0,0.0,87,0.00,,,-99.99,Meteorologica,2013-03-04 08:49:00,
2013-03-04 02:54:00,33.8,30.5,29.66,East,83,0.0,0.0,87,0.00,,,-99.99,Meteorologica,2013-03-04 08:54:00,
2013-03-04 02:59:00,33.6,30.4,29.66,East,83,0.0,0.0,88,0.00,,,-99.99,Meteorologica,2013-03-04 08:59:00,
2013-03-04 03:04:00,33.3,30.3,29.66,East,83,0.0,0.0,88,0.00,,,-99.99,Meteorologica,2013-03-04 09:04:00,
2013-03-04 03:09:00,33.1,30.2,29.66,East,83,0.0,0.0,89,0.00,,,-99.99,Meteorologica,2013-03-04 09:09:00,
2013-03-04 03:14:00,33.0,30.2,29.66,East,83,0.0,0.0,89,0.00,,,-99.99,Meteorologica,2013-03-04 09:14:00,
2013-03-04 03:19:00,32.8,30.0,29.66,East,83,0.0,0.0,89,0.00,,,-99.99,Meteorologica,2013-03-04 09:19:00,
2013-03-04 03:24:00,32.8,30.2,29.66,East,83,0.0,0.0,90,0.00,,,-99.99,Meteorologica,2013-03-04 09:24:00,
2013-03-04 03:29:00,32.8,30.1,29.66,East,83,0.0,0.0,90,0.00,,,-99.99,Meteorologica,2013-03-04 09:29:00,
2013-03-04 03:34:00,32.8,30.2,29.66,East,83,0.0,0.0,90,0.00,,,-99.99,Meteorologica,2013-03-04 09:34:00,
2013-03-04 03:39:00,32.9,30.3,29.65,East,83,0.0,0.0,90,0.00,,,-99.99,Meteorologica,2013-03-04 09:39:00,
2013-03-04 03:44:00,33.1,30.5,29.65,East,83,0.0,0.0,90,0.00,,,-99.99,Meteorologica,2013-03-04 09:44:00,
2013-03-04 03:49:00,33.2,30.6,29.65,East,83,0.0,0.0,90,0.00,,,-99.99,Meteorologica,2013-03-04 09:49:00,
2013-03-04 03:54:00,33.4,30.7,29.65,East,83,0.0,0.0,90,0.00,,,-99.99,Meteorologica,2013-03-04 09:54:00,
2013-03-04 03:59:00,33.6,30.9,29.66,East,83,0.0,0.0,89,0.00,,,-99.99,Meteorologica,2013-03-04 09:59:00,
2013-03-04 04:04:00,33.7,31.0,29.65,East,83,0.0,0.0,89,0.00,,,-99.99,Meteorologica,2013-03-04 10:04:00,
2013-03-04 04:09:00,33.9,31.1,29.66,East,83,0.0,0.0,89,0.00,,,-99.99,Meteorologica,2013-03-04 10:09:00,
2013-03-04 04:14:00,34.1,31.2,29.66,East,83,0.0,0.0,89,0.00,,,-99.99,Meteorologica,2013-03-04 10:14:00,
2013-03-04 04:19:00,34.1,31.2,29.66,East,83,0.0,0.0,89,0.00,,,-99.99,Meteorologica,2013-03-04 10:19:00,
2013-03-04 04:24:00,34.1,31.2,29.65,East,83,0.0,0.0,89,0.00,,,-99.99,Meteorologica,2013-03-04 10:24:00,
2013-03-04 04:29:00,34.0,31.2,29.66,East,83,0.0,0.0,89,0.00,,,-99.99,Meteorologica,2013-03-04 10:29:00,
2013-03-04 04:34:00,33.9,31.1,29.65,East,83,0.0,0.0,89,0.00,,,-99.99,Meteorologica,2013-03-04 10:34:00,
2013-03-04 04:39:00,34.0,31.3,29.65,East,83,0.0,0.0,89,0.00,,,-99.99,Meteorologica,2013-03-04 10:39:00,
2013-03-04 04:44:00,34.1,31.3,29.65,East,83,0.0,0.0,89,0.00,,,-99.99,Meteorologica,2013-03-04 10:44:00,
2013-03-04 04:49:00,34.3,31.4,29.65,East,83,0.0,0.0,89,0.00,,,-99.99,Meteorologica,2013-03-04 10:49:00,
2013-03-04 04:54:00,34.5,31.6,29.65,East,83,0.0,0.0,89,0.00,,,-99.99,Meteorologica,2013-03-04 10:54:00,
2013-03-04 04:59:00,34.4,31.4,29.65,East,83,0.0,0.0,88,0.00,,,-99.99,Meteorologica,2013-03-04 10:59:00,
2013-03-04 05:04:00,34.4,31.5,29.65,SE,131,0.1,3.0,89,0.00,,,-99.99,Meteorologica,2013-03-04 11:04:00,
2013-03-04 05:09:00,34.2,31.4,29.64,SSW,193,4.0,5.5,89,0.00,,,-99.99,Meteorologica,2013-03-04 11:09:00,
2013-03-04 05:14:00,34.3,31.6,29.64,South,181,4.9,7.3,90,0.00,,,-99.99,Meteorologica,2013-03-04 11:14:00,
2013-03-04 05:19:00,34.3,31.6,29.64,South,183,4.3,6.8,89,0.00,,,-99.99,Meteorologica,2013-03-04 11:19:00,
2013-03-04 05:24:00,34.6,31.8,29.65,ESE,105,0.0,5.4,89,0.00,,,-99.99,Meteorologica,2013-03-04 11:24:00,
2013-03-04 05:29:00,34.6,31.8,29.65,South,191,0.8,4.5,89,0.00,,,-99.99,Meteorologica,2013-03-04 11:29:00,
2013-03-04 05:34:00,34.8,31.9,29.65,SSE,163,2.8,6.9,89,0.00,,,-99.99,Meteorologica,2013-03-04 11:34:00,
2013-03-04 05:39:00,34.9,31.9,29.65,South,184,0.8,7.3,89,0.00,,,-99.99,Meteorologica,2013-03-04 11:39:00,
2013-03-04 05:44:00,35.0,32.0,29.65,SSE,163,0.0,6.2,88,0.00,,,-99.99,Meteorologica,2013-03-04 11:44:00,
2013-03-04 05:49:00,35.0,32.0,29.65,South,175,3.9,5.1,88,0.00,,,-99.99,Meteorologica,2013-03-04 11:49:00,
2013-03-04 05:54:00,34.9,31.9,29.64,SSE,160,3.4,6.1,89,0.00,,,-99.99,Meteorologica,2013-03-04 11:54:00,
2013-03-04 05:59:00,35.0,32.1,29.64,South,175,3.3,6.8,89,0.00,,,-99.99,Meteorologica,2013-03-04 11:59:00,
2013-03-04 06:04:00,34.9,32.1,29.64,SSW,208,4.3,7.4,89,0.00,,,-99.99,Meteorologica,2013-03-04 12:04:00,
2013-03-04 06:09:00,35.0,32.1,29.64,South,173,2.0,7.0,89,0.00,,,-99.99,Meteorologica,2013-03-04 12:09:00,
2013-03-04 06:14:00,35.0,32.3,29.64,SE,124,0.0,7.8,89,0.00,,,-99.99,Meteorologica,2013-03-04 12:14:00,
2013-03-04 06:19:00,35.2,32.4,29.65,SE,142,2.8,6.4,89,0.00,,,-99.99,Meteorologica,2013-03-04 12:19:00,
2013-03-04 06:24:00,35.5,32.6,29.65,SE,146,3.3,5.1,89,0.00,,,-99.99,Meteorologica,2013-03-04 12:24:00,
2013-03-04 06:29:00,35.6,32.6,29.65,SSE,164,3.8,6.1,88,0.00,,,-99.99,Meteorologica,2013-03-04 12:29:00,
2013-03-04 06:34:00,35.7,32.6,29.64,SE,140,3.5,5.0,88,0.00,,,-99.99,Meteorologica,2013-03-04 12:34:00,
2013-03-04 06:39:00,35.7,32.6,29.65,SE,143,0.0,4.8,88,0.00,,,-99.99,Meteorologica,2013-03-04 12:39:00,
2013-03-04 06:44:00,35.7,32.6,29.66,South,177,0.0,0.0,88,0.00,,,-99.99,Meteorologica,2013-03-04 12:44:00,
2013-03-04 06:49:00,35.8,32.7,29.65,South,177,0.0,0.0,88,0.00,,,-99.99,Meteorologica,2013-03-04 12:49:00,
2013-03-04 06:54:00,35.9,32.8,29.66,South,177,0.0,0.0,88,0.00,,,-99.99,Meteorologica,2013-03-04 12:54:00,
2013-03-04 06:59:00,35.8,32.7,29.65,South,177,0.0,0.0,88,0.00,,,-99.99,Meteorologica,2013-03-04 12:59:00,
2013-03-04 07:04:00,35.7,32.7,29.66,South,177,0.0,0.0,88,0.00,,,-99.99,Meteorologica,2013-03-04 13:04:00,
2013-03-04 07:09:00,35.6,32.6,29.66,South,177,0.0,0.0,89,0.00,,,-99.99,Meteorologica,2013-03-04 13:09:00,
2013-03-04 07:14:00,35.5,32.6,29.66,South,177,0.0,0.0,89,0.00,,,-99.99,Meteorologica,2013-03-04 13:14:00,
2013-03-04 07:19:00,35.5,32.7,29.65,South,177,0.0,0.0,89,0.00,,,-99.99,Meteorologica,2013-03-04 13:19:00,
2013-03-04 07:24:00,35.6,32.9,29.65,South,177,0.0,0.0,89,0.00,,,-99.99,Meteorologica,2013-03-04 13:24:00,
2013-03-04 07:29:00,35.7,33.0,29.66,South,177,0.0,0.0,89,0.00,,,-99.99,Meteorologica,2013-03-04 13:29:00,
2013-03-04 07:34:00,35.8,33.0,29.66,South,177,0.0,0.0,89,0.00,,,-99.99,Meteorologica,2013-03-04 13:34:00,
2013-03-04 07:39:00,35.9,33.2,29.66,West,271,1.9,3.1,90,0.00,,,-99.99,Meteorologica,2013-03-04 13:39:00,
2013-03-04 07:44:00,36.1,33.4,29.66,West,271,0.0,0.0,89,0.00,,,-99.99,Meteorologica,2013-03-04 13:44:00,
2013-03-04 07:49:00,36.3,33.6,29.66,West,271,0.0,0.0,89,0.00,,,-99.99,Meteorologica,2013-03-04 13:49:00,
2013-03-04 07:54:00,36.6,34.0,29.67,West,271,0.0,0.0,90,0.00,,,-99.99,Meteorologica,2013-03-04 13:54:00,
2013-03-04 07:59:00,36.8,34.1,29.67,West,271,0.0,0.0,90,0.00,,,-99.99,Meteorologica,2013-03-04 13:59:00,
2013-03-04 08:04:00,37.2,34.4,29.67,West,271,0.0,0.0,89,0.00,,,-99.99,Meteorologica,2013-03-04 14:04:00,
2013-03-04 08:09:00,37.4,34.3,29.67,West,271,0.0,0.0,88,0.00,,,-99.99,Meteorologica,2013-03-04 14:09:00,
2013-03-04 08:14:00,37.8,34.5,29.67,West,271,0.0,0.0,88,0.00,,,-99.99,Meteorologica,2013-03-04 14:14:00,
2013-03-04 08:19:00,38.0,34.4,29.68,West,271,0.0,0.0,87,0.00,,,-99.99,Meteorologica,2013-03-04 14:19:00,
2013-03-04 08:24:00,38.4,34.8,29.68,West,271,0.0,0.0,86,0.00,,,-99.99,Meteorologica,2013-03-04 14:24:00,
2013-03-04 08:29:00,38.7,34.7,29.68,West,271,0.0,0.0,85,0.00,,,-99.99,Meteorologica,2013-03-04 14:29:00,
2013-03-04 08:34:00,38.9,34.6,29.69,West,271,0.0,0.0,84,0.00,,,-99.99,Meteorologica,2013-03-04 14:34:00,
2013-03-04 08:39:00,39.2,34.9,29.69,West,271,0.0,0.0,84,0.00,,,-99.99,Meteorologica,2013-03-04 14:39:00,
2013-03-04 08:44:00,39.4,35.0,29.69,West,271,0.0,0.0,84,0.00,,,-99.99,Meteorologica,2013-03-04 14:44:00,
2013-03-04 08:49:00,39.6,35.1,29.69,West,271,0.0,0.0,83,0.00,,,-99.99,Meteorologica,2013-03-04 14:49:00,
2013-03-04 08:54:00,39.8,34.7,29.69,WNW,292,5.2,6.6,81,0.00,,,-99.99,Meteorologica,2013-03-04 14:54:00,
2013-03-04 08:59:00,40.0,35.0,29.69,NW,317,0.3,3.5,82,0.00,,,-99.99,Meteorologica,2013-03-04 14:59:00,
2013-03-04 09:04:00,40.2,35.4,29.69,WNW,286,0.0,5.2,82,0.00,,,-99.99,Meteorologica,2013-03-04 15:04:00,
2013-03-04 09:09:00,40.4,35.0,29.70,WSW,254,3.2,7.3,81,0.00,,,-99.99,Meteorologica,2013-03-04 15:09:00,
2013-03-04 09:14:00,40.6,35.3,29.70,West,262,4.5,7.9,81,0.00,,,-99.99,Meteorologica,2013-03-04 15:14:00,
2013-03-04 09:19:00,40.6,35.3,29.70,West,271,0.0,5.3,81,0.00,,,-99.99,Meteorologica,2013-03-04 15:19:00,
2013-03-04 09:24:00,40.6,35.2,29.70,WSW,238,0.0,6.1,80,0.00,,,-99.99,Meteorologica,2013-03-04 15:24:00,
2013-03-04 09:29:00,40.8,35.5,29.70,WSW,238,0.0,0.0,81,0.00,,,-99.99,Meteorologica,2013-03-04 15:29:00,
2013-03-04 09:34:00,41.0,35.2,29.70,WNW,289,2.6,4.8,79,0.00,,,-99.99,Meteorologica,2013-03-04 15:34:00,
2013-03-04 09:39:00,41.3,35.6,29.70,West,279,0.0,4.5,79,0.00,,,-99.99,Meteorologica,2013-03-04 15:39:00,
2013-03-04 09:44:00,41.5,35.7,29.70,West,279,0.0,0.0,79,0.00,,,-99.99,Meteorologica,2013-03-04 15:44:00,
2013-03-04 09:49:00,41.6,36.0,29.70,WSW,254,2.4,4.3,80,0.00,,,-99.99,Meteorologica,2013-03-04 15:49:00,
2013-03-04 09:54:00,41.7,35.8,29.70,WSW,238,1.1,5.3,79,0.00,,,-99.99,Meteorologica,2013-03-04 15:54:00,
2013-03-04 09:59:00,41.6,35.7,29.71,WSW,239,2.2,6.1,79,0.00,,,-99.99,Meteorologica,2013-03-04 15:59:00,
2013-03-04 10:04:00,41.8,36.0,29.70,West,266,0.0,4.9,79,0.00,,,-99.99,Meteorologica,2013-03-04 16:04:00,
2013-03-04 10:09:00,41.8,36.1,29.71,WNW,285,0.1,6.3,80,0.00,,,-99.99,Meteorologica,2013-03-04 16:09:00,
2013-03-04 10:14:00,41.9,36.1,29.71,West,261,0.5,5.7,79,0.00,,,-99.99,Meteorologica,2013-03-04 16:14:00,
2013-03-04 10:19:00,41.8,35.8,29.71,WSW,255,2.9,6.4,78,0.00,,,-99.99,Meteorologica,2013-03-04 16:19:00,
2013-03-04 10:24:00,41.8,35.8,29.71,WSW,255,0.0,0.0,79,0.00,,,-99.99,Meteorologica,2013-03-04 16:24:00,
2013-03-04 10:29:00,42.2,36.4,29.71,WSW,255,0.0,0.0,79,0.00,,,-99.99,Meteorologica,2013-03-04 16:29:00,
2013-03-04 10:34:00,42.6,36.4,29.71,North,350,3.5,7.3,78,0.00,,,-99.99,Meteorologica,2013-03-04 16:34:00,
2013-03-04 10:39:00,42.8,36.5,29.72,SW,221,2.4,3.5,78,0.00,,,-99.99,Meteorologica,2013-03-04 16:39:00,
2013-03-04 10:44:00,43.2,36.4,29.72,ESE,121,3.5,8.7,76,0.00,,,-99.99,Meteorologica,2013-03-04 16:44:00,
2013-03-04 10:49:00,43.1,36.5,29.72,West,266,0.8,7.8,77,0.00,,,-99.99,Meteorologica,2013-03-04 16:49:00,
2013-03-04 10:54:00,43.4,36.6,29.73,West,266,0.0,0.0,77,0.00,,,-99.99,Meteorologica,2013-03-04 16:54:00,
2013-03-04 10:59:00,43.7,37.0,29.73,NW,309,4.2,9.4,77,0.00,,,-99.99,Meteorologica,2013-03-04 16:59:00,
2013-03-04 11:04:00,44.1,36.8,29.73,SW,233,2.6,8.6,75,0.00,,,-99.99,Meteorologica,2013-03-04 17:04:00,
2013-03-04 11:09:00,44.4,37.4,29.73,North,350,3.3,7.1,76,0.00,,,-99.99,Meteorologica,2013-03-04 17:09:00,
2013-03-04 11:14:00,45.1,37.8,29.73,NW,310,3.2,6.6,75,0.00,,,-99.99,Meteorologica,2013-03-04 17:14:00,
2013-03-04 11:19:00,45.4,37.6,29.74,North,350,6.0,9.1,73,0.00,,,-99.99,Meteorologica,2013-03-04 17:19:00,
2013-03-04 11:24:00,45.3,37.3,29.73,NW,307,5.1,10.5,73,0.00,,,-99.99,Meteorologica,2013-03-04 17:24:00,
2013-03-04 11:29:00,45.1,37.4,29.74,WNW,297,0.0,7.1,74,0.00,,,-99.99,Meteorologica,2013-03-04 17:29:00,
2013-03-04 11:34:00,45.1,37.8,29.74,NW,326,2.7,9.5,75,0.00,,,-99.99,Meteorologica,2013-03-04 17:34:00,
2013-03-04 11:39:00,45.0,37.5,29.75,NNW,327,4.4,8.1,74,0.00,,,-99.99,Meteorologica,2013-03-04 17:39:00,
2013-03-04 11:44:00,44.5,37.3,29.74,NNW,332,7.6,12.9,75,0.00,,,-99.99,Meteorologica,2013-03-04 17:44:00,
2013-03-04 11:49:00,44.3,37.3,29.73,NNW,333,6.7,9.8,76,0.00,,,-99.99,Meteorologica,2013-03-04 17:49:00,
2013-03-04 11:54:00,44.2,37.2,29.73,NNW,335,6.1,10.3,76,0.00,,,-99.99,Meteorologica,2013-03-04 17:54:00,
2013-03-04 11:59:00,44.4,37.7,29.74,NW,319,5.2,12.0,77,0.00,,,-99.99,Meteorologica,2013-03-04 17:59:00,
2013-03-04 12:04:00,44.7,37.5,29.74,WSW,238,8.2,15.6,75,0.00,,,-99.99,Meteorologica,2013-03-04 18:04:00,
2013-03-04 12:09:00,44.7,37.2,29.75,NW,323,6.5,11.5,74,0.00,,,-99.99,Meteorologica,2013-03-04 18:09:00,
2013-03-04 12:14:00,44.5,37.2,29.74,SW,227,6.9,13.9,75,0.00,,,-99.99,Meteorologica,2013-03-04 18:14:00,
2013-03-04 12:19:00,44.8,37.4,29.75,SW,231,6.7,11.2,74,0.00,,,-99.99,Meteorologica,2013-03-04 18:19:00,
2013-03-04 12:24:00,45.2,38.3,29.75,WNW,292,6.5,11.5,76,0.00,,,-99.99,Meteorologica,2013-03-04 18:24:00,
2013-03-04 12:29:00,45.2,37.3,29.74,WSW,238,8.8,19.3,72,0.00,,,-99.99,Meteorologica,2013-03-04 18:29:00,
2013-03-04 12:30:00,45.1,37.3,29.74,SW,234,8.1,11.4,73,0.00,,,-99.99,Meteorologica,2013-03-04 18:30:00,
2013-03-04 12:31:00,44.9,37.1,29.75,NNW,333,7.5,11.4,73,0.00,,,-99.99,Meteorologica,2013-03-04 18:31:00,
2013-03-04 12:36:00,44.5,37.3,29.75,NNW,327,6.9,9.9,75,0.00,,,-99.99,Meteorologica,2013-03-04 18:36:00,
2013-03-04 12:37:00,44.4,37.1,29.75,SW,230,6.8,9.9,75,0.00,,,-99.99,Meteorologica,2013-03-04 18:37:00,
2013-03-04 12:42:00,44.0,37.2,29.75,NW,325,7.2,9.4,76,0.00,,,-99.99,Meteorologica,2013-03-04 18:42:00,
2013-03-04 12:47:00,43.7,36.8,29.75,SW,236,6.5,10.2,76,0.00,,,-99.99,Meteorologica,2013-03-04 18:47:00,
2013-03-04 12:52:00,44.2,37.1,29.75,North,351,8.0,13.6,75,0.00,,,-99.99,Meteorologica,2013-03-04 18:52:00,
2013-03-04 12:57:00,44.5,37.4,29.75,North,351,4.9,11.2,75,0.00,,,-99.99,Meteorologica,2013-03-04 18:57:00,
2013-03-04 13:02:00,44.8,36.9,29.75,NE,44,10.1,14.3,73,0.00,,,-99.99,Meteorologica,2013-03-04 19:02:00,
2013-03-04 13:07:00,44.4,36.9,29.74,North,355,9.5,12.7,74,0.00,,,-99.99,Meteorologica,2013-03-04 19:07:00,
2013-03-04 13:12:00,44.2,37.1,29.73,North,351,7.0,13.3,75,0.00,,,-99.99,Meteorologica,2013-03-04 19:12:00,
2013-03-04 13:17:00,44.2,37.1,29.74,ESE,119,5.9,12.9,75,0.00,,,-99.99,Meteorologica,2013-03-04 19:17:00,
2013-03-04 13:22:00,44.3,37.2,29.75,NNW,340,7.4,11.3,75,0.00,,,-99.99,Meteorologica,2013-03-04 19:22:00,
2013-03-04 13:27:00,44.2,36.9,29.74,SW,228,8.2,9.9,75,0.00,,,-99.99,Meteorologica,2013-03-04 19:27:00,
2013-03-04 13:32:00,43.8,36.7,29.74,North,6,6.3,14.4,75,0.00,,,-99.99,Meteorologica,2013-03-04 19:32:00,
2013-03-04 13:37:00,43.6,36.8,29.73,ESE,122,5.7,13.7,76,0.00,,,-99.99,Meteorologica,2013-03-04 19:37:00,
2013-03-04 13:42:00,43.1,36.3,29.73,SE,139,9.5,12.7,76,0.00,,,-99.99,Meteorologica,2013-03-04 19:42:00,
2013-03-04 13:47:00,42.9,36.3,29.74,NNW,343,7.1,13.7,77,0.00,,,-99.99,Meteorologica,2013-03-04 19:47:00,
2013-03-04 13:52:00,42.9,36.6,29.74,North,351,7.2,13.1,78,0.00,,,-99.99,Meteorologica,2013-03-04 19:52:00,
2013-03-04 13:57:00,42.8,36.3,29.74,North,354,6.4,10.2,77,0.00,,,-99.99,Meteorologica,2013-03-04 19:57:00,
2013-03-04 14:02:00,43.1,36.6,29.74,NNW,336,4.2,9.5,77,0.00,,,-99.99,Meteorologica,2013-03-04 20:02:00,
2013-03-04 14:07:00,43.1,35.9,29.74,NE,43,10.3,15.1,75,0.00,,,-99.99,Meteorologica,2013-03-04 20:07:00,
2013-03-04 14:12:00,43.0,36.1,29.74,NNE,23,9.9,17.8,76,0.00,,,-99.99,Meteorologica,2013-03-04 20:12:00,
2013-03-04 14:17:00,43.1,36.3,29.74,NNW,340,6.1,11.2,76,0.00,,,-99.99,Meteorologica,2013-03-04 20:17:00,
2013-03-04 14:22:00,43.4,36.4,29.74,NNW,347,9.4,15.1,76,0.00,,,-99.99,Meteorologica,2013-03-04 20:22:00,
2013-03-04 14:27:00,43.2,35.9,29.74,NNW,336,8.0,16.7,75,0.00,,,-99.99,Meteorologica,2013-03-04 20:27:00,
2013-03-04 14:32:00,43.1,36.2,29.75,North,350,7.5,14.8,76,0.00,,,-99.99,Meteorologica,2013-03-04 20:32:00,
2013-03-04 14:37:00,43.0,36.1,29.75,NNW,336,4.6,12.2,76,0.00,,,-99.99,Meteorologica,2013-03-04 20:37:00,
2013-03-04 14:42:00,42.8,36.0,29.75,ESE,123,8.1,11.2,76,0.00,,,-99.99,Meteorologica,2013-03-04 20:42:00,
2013-03-04 14:47:00,42.8,36.2,29.75,NE,40,6.6,12.8,77,0.00,,,-99.99,Meteorologica,2013-03-04 20:47:00,
2013-03-04 14:52:00,42.5,35.8,29.75,NNE,23,6.7,8.8,76,0.00,,,-99.99,Meteorologica,2013-03-04 20:52:00,
2013-03-04 14:57:00,42.4,35.9,29.75,NNW,329,6.2,9.9,77,0.00,,,-99.99,Meteorologica,2013-03-04 20:57:00,
2013-03-04 15:02:00,42.2,35.6,29.75,NNE,14,7.5,11.3,77,0.00,,,-99.99,Meteorologica,2013-03-04 21:02:00,
2013-03-04 15:07:00,42.2,35.8,29.75,NE,48,8.2,14.5,77,0.00,,,-99.99,Meteorologica,2013-03-04 21:07:00,
2013-03-04 15:12:00,42.1,35.8,29.75,ESE,118,5.9,9.5,78,0.00,,,-99.99,Meteorologica,2013-03-04 21:12:00,
2013-03-04 15:17:00,42.0,35.7,29.75,SE,128,6.1,9.2,78,0.00,,,-99.99,Meteorologica,2013-03-04 21:17:00,
2013-03-04 15:22:00,42.2,36.0,29.75,SE,128,5.1,7.3,78,0.00,,,-99.99,Meteorologica,2013-03-04 21:22:00,
2013-03-04 15:27:00,42.3,35.8,29.75,SSE,159,7.3,12.2,77,0.00,,,-99.99,Meteorologica,2013-03-04 21:27:00,
2013-03-04 15:32:00,42.2,35.4,29.76,ENE,61,8.2,14.1,76,0.00,,,-99.99,Meteorologica,2013-03-04 21:32:00,
2013-03-04 15:37:00,42.2,35.4,29.77,WSW,238,9.5,13.0,76,0.00,,,-99.99,Meteorologica,2013-03-04 21:37:00,
2013-03-04 15:42:00,42.5,35.7,29.77,SW,231,8.8,12.2,76,0.00,,,-99.99,Meteorologica,2013-03-04 21:42:00,
2013-03-04 15:47:00,42.6,35.6,29.77,NE,37,8.4,14.8,75,0.00,,,-99.99,Meteorologica,2013-03-04 21:47:00,
2013-03-04 15:52:00,43.1,35.8,29.77,NE,49,7.8,14.6,75,0.00,,,-99.99,Meteorologica,2013-03-04 21:52:00,
2013-03-04 15:57:00,43.2,36.0,29.77,ENE,68,6.7,10.3,75,0.00,,,-99.99,Meteorologica,2013-03-04 21:57:00,
2013-03-04 16:02:00,43.6,36.3,29.77,SW,233,3.4,8.2,75,0.00,,,-99.99,Meteorologica,2013-03-04 22:02:00,
2013-03-04 16:07:00,43.5,35.9,29.78,NNW,348,9.7,13.7,74,0.00,,,-99.99,Meteorologica,2013-03-04 22:07:00,
2013-03-04 16:12:00,43.5,36.2,29.78,SW,235,7.6,10.7,75,0.00,,,-99.99,Meteorologica,2013-03-04 22:12:00,
2013-03-04 16:17:00,43.6,36.2,29.78,SE,124,6.4,11.3,74,0.00,,,-99.99,Meteorologica,2013-03-04 22:17:00,
2013-03-04 16:22:00,43.4,36.1,29.79,WSW,239,6.9,11.3,75,0.00,,,-99.99,Meteorologica,2013-03-04 22:22:00,
2013-03-04 16:27:00,43.2,36.0,29.80,NNE,20,7.6,11.9,75,0.00,,,-99.99,Meteorologica,2013-03-04 22:27:00,
2013-03-04 16:32:00,43.2,36.3,29.80,SW,233,4.6,9.4,76,0.00,,,-99.99,Meteorologica,2013-03-04 22:32:00,
2013-03-04 16:37:00,43.2,36.3,29.81,SW,233,5.2,9.9,76,0.00,,,-99.99,Meteorologica,2013-03-04 22:37:00,
2013-03-04 16:42:00,42.9,35.9,29.82,NNE,21,6.2,11.1,76,0.00,,,-99.99,Meteorologica,2013-03-04 22:42:00,
2013-03-04 16:47:00,42.9,36.1,29.83,NNE,14,2.0,9.4,76,0.00,,,-99.99,Meteorologica,2013-03-04 22:47:00,
2013-03-04 16:52:00,42.7,35.8,29.83,SW,233,7.5,10.1,76,0.00,,,-99.99,Meteorologica,2013-03-04 22:52:00,
2013-03-04 16:57:00,42.4,35.7,29.84,NNE,24,8.2,11.8,76,0.00,,,-99.99,Meteorologica,2013-03-04 22:57:00,
2013-03-04 17:02:00,42.3,35.8,29.84,North,8,6.1,9.0,77,0.00,,,-99.99,Meteorologica,2013-03-04 23:02:00,
2013-03-04 17:07:00,42.2,35.9,29.85,ESE,119,6.1,8.7,78,0.00,,,-99.99,Meteorologica,2013-03-04 23:07:00,
2013-03-04 17:12:00,41.9,35.6,29.85,North,354,8.6,13.3,78,0.00,,,-99.99,Meteorologica,2013-03-04 23:12:00,
2013-03-04 17:17:00,41.8,35.6,29.86,NNW,341,6.9,9.7,78,0.00,,,-99.99,Meteorologica,2013-03-04 23:17:00,
2013-03-04 17:22:00,41.7,35.8,29.87,North,5,7.2,11.0,79,0.00,,,-99.99,Meteorologica,2013-03-04 23:22:00,
2013-03-04 17:27:00,41.6,35.8,29.87,SW,233,6.0,9.9,79,0.00,,,-99.99,Meteorologica,2013-03-04 23:27:00,
2013-03-04 17:32:00,41.4,35.5,29.88,NNW,329,8.5,13.0,79,0.00,,,-99.99,Meteorologica,2013-03-04 23:32:00,
2013-03-04 17:37:00,41.5,35.7,29.88,North,358,6.2,10.1,79,0.00,,,-99.99,Meteorologica,2013-03-04 23:37:00,
2013-03-04 17:42:00,41.6,35.6,29.88,North,351,6.6,11.7,79,0.00,,,-99.99,Meteorologica,2013-03-04 23:42:00,
2013-03-04 17:47:00,41.4,35.5,29.89,SE,132,7.2,13.0,79,0.00,,,-99.99,Meteorologica,2013-03-04 23:47:00,
2013-03-04 17:52:00,41.6,35.8,29.88,NE,49,3.3,6.8,79,0.00,,,-99.99,Meteorologica,2013-03-04 23:52:00,
2013-03-04 17:57:00,41.3,35.5,29.89,NNE,23,3.7,11.2,79,0.00,,,-99.99,Meteorologica,2013-03-04 23:57:00,
2013-03-04 18:02:00,41.2,35.4,29.89,NE,39,6.1,10.8,79,0.00,,,-99.99,Meteorologica,2013-03-05 00:02:00,
2013-03-04 18:07:00,41.3,35.6,29.91,North,352,4.5,8.1,80,0.00,,,-99.99,Meteorologica,2013-03-05 00:07:00,
2013-03-04 18:12:00,41.1,35.5,29.91,North,354,6.5,8.4,80,0.00,,,-99.99,Meteorologica,2013-03-05 00:12:00,
2013-03-04 18:17:00,41.2,35.6,29.91,SE,126,4.8,7.5,80,0.00,,,-99.99,Meteorologica,2013-03-05 00:17:00,
2013-03-04 18:22:00,41.3,35.7,29.92,NW,316,4.1,7.1,80,0.00,,,-99.99,Meteorologica,2013-03-05 00:22:00,
2013-03-04 18:27:00,41.2,35.6,29.92,SE,124,6.2,8.9,80,0.00,,,-99.99,Meteorologica,2013-03-05 00:27:00,
2013-03-04 18:32:00,41.1,35.5,29.93,SW,235,3.6,9.3,80,0.00,,,-99.99,Meteorologica,2013-03-05 00:32:00,
2013-03-04 18:38:00,41.2,35.6,29.93,NE,43,3.1,5.8,80,0.00,,,-99.99,Meteorologica,2013-03-05 00:38:00,
2013-03-04 18:43:00,41.1,35.6,29.93,ESE,117,5.7,9.3,80,0.00,,,-99.99,Meteorologica,2013-03-05 00:43:00,
2013-03-04 18:48:00,41.1,35.7,29.93,NNW,335,5.3,7.0,80,0.00,,,-99.99,Meteorologica,2013-03-05 00:48:00,
2013-03-04 18:53:00,41.1,35.7,29.94,SE,146,5.0,6.7,80,0.00,,,-99.99,Meteorologica,2013-03-05 00:53:00,
2013-03-04 18:58:00,41.1,35.7,29.94,NE,41,5.2,7.8,80,0.00,,,-99.99,Meteorologica,2013-03-05 00:58:00,
2013-03-04 19:03:00,41.0,35.6,29.94,WSW,241,6.4,10.0,80,0.00,,,-99.99,Meteorologica,2013-03-05 01:03:00,
2013-03-04 19:08:00,41.0,35.6,29.95,NNW,347,5.8,10.4,81,0.00,,,-99.99,Meteorologica,2013-03-05 01:08:00,
2013-03-04 19:13:00,41.0,35.6,29.95,NNE,26,5.4,7.8,81,0.00,,,-99.99,Meteorologica,2013-03-05 01:13:00,
2013-03-04 19:18:00,40.9,35.6,29.95,North,355,3.4,9.2,81,0.00,,,-99.99,Meteorologica,2013-03-05 01:18:00,
2013-03-04 19:23:00,40.8,35.6,29.96,NW,317,0.0,6.3,81,0.00,,,-99.99,Meteorologica,2013-03-05 01:23:00,
2013-03-04 19:28:00,40.7,35.5,29.96,NNW,348,3.2,7.0,81,0.00,,,-99.99,Meteorologica,2013-03-05 01:28:00,
2013-03-04 19:33:00,40.7,35.5,29.96,NNW,344,5.8,8.3,81,0.00,,,-99.99,Meteorologica,2013-03-05 01:33:00,
2013-03-04 19:38:00,40.5,35.4,29.97,SW,233,5.0,8.5,81,0.00,,,-99.99,Meteorologica,2013-03-05 01:38:00,
2013-03-04 19:43:00,40.6,35.6,29.97,NW,321,3.9,7.4,82,0.00,,,-99.99,Meteorologica,2013-03-05 01:43:00,
2013-03-04 19:48:00,40.5,35.6,29.98,NNW,339,4.2,7.3,82,0.00,,,-99.99,Meteorologica,2013-03-05 01:48:00,
2013-03-04 19:53:00,40.4,35.5,29.98,North,352,6.3,9.4,82,0.00,,,-99.99,Meteorologica,2013-03-05 01:53:00,
2013-03-04 19:58:00,40.3,35.4,29.99,NNW,336,4.2,6.9,82,0.00,,,-99.99,Meteorologica,2013-03-05 01:58:00,
2013-03-04 20:03:00,40.3,35.4,29.99,WSW,241,7.0,9.5,82,0.00,,,-99.99,Meteorologica,2013-03-05 02:03:00,
2013-03-04 20:08:00,40.2,35.1,29.99,NNW,335,7.3,10.6,81,0.00,,,-99.99,Meteorologica,2013-03-05 02:08:00,
2013-03-04 20:13:00,40.1,35.3,29.99,North,351,6.4,10.8,82,0.00,,,-99.99,Meteorologica,2013-03-05 02:13:00,
2013-03-04 20:18:00,39.6,35.4,30.00,WSW,239,9.7,16.9,85,0.00,,,-99.99,Meteorologica,2013-03-05 02:18:00,
2013-03-04 20:23:00,38.8,38.8,30.00,WSW,238,8.1,13.3,100,0.00,,,-99.99,Meteorologica,2013-03-05 02:23:00,
2013-03-04 20:28:00,38.1,38.1,30.01,NNE,22,7.7,11.8,100,0.00,,,-99.99,Meteorologica,2013-03-05 02:28:00,
2013-03-04 20:33:00,37.7,35.4,30.01,SW,236,8.8,12.5,91,0.00,,,-99.99,Meteorologica,2013-03-05 02:33:00,
2013-03-04 20:38:00,37.2,35.1,30.01,North,357,7.1,11.0,92,0.00,,,-99.99,Meteorologica,2013-03-05 02:38:00,
2013-03-04 20:43:00,37.0,35.0,30.01,SE,129,6.8,11.3,92,0.00,,,-99.99,Meteorologica,2013-03-05 02:43:00,
2013-03-04 20:48:00,36.8,34.9,30.01,North,351,6.2,8.4,92,0.00,,,-99.99,Meteorologica,2013-03-05 02:48:00,
2013-03-04 20:53:00,36.7,34.8,30.01,SE,128,2.9,8.5,92,0.00,,,-99.99,Meteorologica,2013-03-05 02:53:00,
2013-03-04 20:58:00,36.5,34.6,30.01,NNE,16,0.0,0.0,93,0.00,,,-99.99,Meteorologica,2013-03-05 02:58:00,
2013-03-04 21:03:00,36.4,34.7,30.01,NNW,343,1.3,5.6,93,0.00,,,-99.99,Meteorologica,2013-03-05 03:03:00,
2013-03-04 21:08:00,36.3,34.6,30.02,WNW,287,4.0,5.6,93,0.00,,,-99.99,Meteorologica,2013-03-05 03:08:00,
2013-03-04 21:13:00,36.3,34.7,30.02,NW,324,0.0,5.2,93,0.00,,,-99.99,Meteorologica,2013-03-05 03:13:00,
2013-03-04 21:18:00,36.3,34.6,30.02,NW,324,0.0,0.0,93,0.00,,,-99.99,Meteorologica,2013-03-05 03:18:00,
2013-03-04 21:23:00,36.3,34.6,30.02,NNW,340,1.8,6.6,93,0.00,,,-99.99,Meteorologica,2013-03-05 03:23:00,
2013-03-04 21:28:00,36.4,34.7,30.03,NNW,334,0.0,0.0,93,0.00,,,-99.99,Meteorologica,2013-03-05 03:28:00,
2013-03-04 21:33:00,36.4,34.7,30.04,NW,324,0.0,3.3,93,0.00,,,-99.99,Meteorologica,2013-03-05 03:33:00,
2013-03-04 21:38:00,36.4,34.7,30.04,NW,324,0.0,0.0,93,0.00,,,-99.99,Meteorologica,2013-03-05 03:38:00,
2013-03-04 21:43:00,36.4,34.7,30.04,NW,324,0.0,0.0,93,0.00,,,-99.99,Meteorologica,2013-03-05 03:43:00,
2013-03-04 21:48:00,36.3,34.6,30.03,NW,304,3.4,5.3,93,0.00,,,-99.99,Meteorologica,2013-03-05 03:48:00,
2013-03-04 21:53:00,36.3,34.6,30.04,NNW,342,3.0,4.9,93,0.00,,,-99.99,Meteorologica,2013-03-05 03:53:00,
2013-03-04 21:58:00,36.3,34.6,30.05,NNW,337,0.0,4.3,93,0.00,,,-99.99,Meteorologica,2013-03-05 03:58:00,
2013-03-04 22:03:00,36.2,34.5,30.04,NW,314,0.0,2.7,93,0.00,,,-99.99,Meteorologica,2013-03-05 04:03:00,
2013-03-04 22:08:00,36.1,34.4,30.05,NW,314,0.0,0.0,93,0.00,,,-99.99,Meteorologica,2013-03-05 04:08:00,
2013-03-04 22:13:00,36.0,34.4,30.06,NW,316,0.0,5.0,93,0.00,,,-99.99,Meteorologica,2013-03-05 04:13:00,
2013-03-04 22:18:00,36.0,34.3,30.05,NNW,330,0.0,3.5,93,0.00,,,-99.99,Meteorologica,2013-03-05 04:18:00,
2013-03-04 22:23:00,36.0,34.3,30.05,North,3,0.5,4.6,93,0.00,,,-99.99,Meteorologica,2013-03-05 04:23:00,
2013-03-04 22:28:00,35.9,34.2,30.06,West,280,3.3,5.2,93,0.00,,,-99.99,Meteorologica,2013-03-05 04:28:00,
2013-03-04 22:33:00,35.7,34.0,30.06,NNW,337,0.8,5.1,93,0.00,,,-99.99,Meteorologica,2013-03-05 04:33:00,
2013-03-04 22:38:00,35.6,33.9,30.06,NNW,338,0.4,5.2,93,0.00,,,-99.99,Meteorologica,2013-03-05 04:38:00,
2013-03-04 22:43:00,35.6,33.9,30.07,NNW,338,0.0,0.0,93,0.00,,,-99.99,Meteorologica,2013-03-05 04:43:00,
2013-03-04 22:48:00,35.6,33.9,30.06,NNW,338,0.0,0.0,93,0.00,,,-99.99,Meteorologica,2013-03-05 04:48:00,
2013-03-04 22:53:00,35.6,33.9,30.06,NNW,338,0.0,0.0,93,0.00,,,-99.99,Meteorologica,2013-03-05 04:53:00,
2013-03-04 22:58:00,35.5,33.8,30.06,NNW,338,0.0,0.0,93,0.00,,,-99.99,Meteorologica,2013-03-05 04:58:00,
2013-03-04 23:01:00,35.4,33.7,30.06,NNW,338,0.0,0.0,93,0.00,,,-99.99,Meteorologica,2013-03-05 05:01:00,
2013-03-04 23:02:00,35.5,33.8,30.06,NNW,338,0.0,0.0,93,0.00,,,-99.99,Meteorologica,2013-03-05 05:02:00,
2013-03-04 23:03:00,35.5,33.8,30.06,NNW,338,0.0,0.0,93,0.00,,,-99.99,Meteorologica,2013-03-05 05:03:00,
2013-03-04 23:04:00,35.4,33.7,30.06,NNW,338,0.0,0.0,93,0.00,,,-99.99,Meteorologica,2013-03-05 05:04:00,
2013-03-04 23:09:00,35.4,33.8,30.06,NNW,338,0.0,0.0,93,0.00,,,-99.99,Meteorologica,2013-03-05 05:09:00,
2013-03-04 23:14:00,35.5,33.9,30.06,North,4,3.0,4.7,93,0.00,,,-99.99,Meteorologica,2013-03-05 05:14:00,
2013-03-04 23:19:00,35.5,33.9,30.06,North,4,0.0,0.0,93,0.00,,,-99.99,Meteorologica,2013-03-05 05:19:00,
2013-03-04 23:24:00,35.4,33.8,30.06,North,350,0.0,3.0,94,0.00,,,-99.99,Meteorologica,2013-03-05 05:24:00,
2013-03-04 23:29:00,35.4,33.8,30.06,North,7,1.0,5.9,94,0.00,,,-99.99,Meteorologica,2013-03-05 05:29:00,
2013-03-04 23:34:00,35.4,33.8,30.06,North,354,0.0,5.8,94,0.00,,,-99.99,Meteorologica,2013-03-05 05:34:00,
2013-03-04 23:39:00,35.4,33.8,30.05,NNW,343,2.5,6.7,94,0.00,,,-99.99,Meteorologica,2013-03-05 05:39:00,
2013-03-04 23:44:00,35.4,33.8,30.06,NNW,338,2.2,6.6,94,0.00,,,-99.99,Meteorologica,2013-03-05 05:44:00,
2013-03-04 23:49:00,35.4,33.8,30.07,NNW,348,5.9,9.1,94,0.00,,,-99.99,Meteorologica,2013-03-05 05:49:00,
2013-03-04 23:54:00,35.4,33.7,30.08,NW,306,5.5,8.2,93,0.00,,,-99.99,Meteorologica,2013-03-05 05:54:00,
2013-03-04 23:59:00,35.5,33.7,30.08,NNW,335,5.0,9.1,93,0.00,,,-99.99,Meteorologica,2013-03-05 05:59:00,